sensor_id;sensor_type;location;lat;lon;timestamp;temperature;humidity
81192;DHT22;70665;47.652;-2.730;2023-12-20T00:00:36;9.40;78.20
81192;DHT22;70665;47.652;-2.730;2023-12-20T00:03:03;9.50;78.30
81192;DHT22;70665;47.652;-2.730;2023-12-20T00:05:28;9.60;78.20
81192;DHT22;70665;47.652;-2.730;2023-12-20T00:07:54;9.50;78.40
81192;DHT22;70665;47.652;-2.730;2023-12-20T00:10:20;9.60;78.50
81192;DHT22;70665;47.652;-2.730;2023-12-20T00:12:45;9.60;78.40
81192;DHT22;70665;47.652;-2.730;2023-12-20T00:15:11;9.60;78.70
81192;DHT22;70665;47.652;-2.730;2023-12-20T00:17:36;9.70;78.60
81192;DHT22;70665;47.652;-2.730;2023-12-20T00:20:08;9.80;78.50
81192;DHT22;70665;47.652;-2.730;2023-12-20T00:22:33;9.80;78.60
81192;DHT22;70665;47.652;-2.730;2023-12-20T00:24:59;9.80;78.30
81192;DHT22;70665;47.652;-2.730;2023-12-20T00:27:24;9.70;78.80
81192;DHT22;70665;47.652;-2.730;2023-12-20T00:29:50;9.70;78.80
81192;DHT22;70665;47.652;-2.730;2023-12-20T00:32:16;9.70;78.10
81192;DHT22;70665;47.652;-2.730;2023-12-20T00:34:42;9.70;79.10
81192;DHT22;70665;47.652;-2.730;2023-12-20T00:37:08;9.60;78.90
81192;DHT22;70665;47.652;-2.730;2023-12-20T00:39:34;9.60;79.40
81192;DHT22;70665;47.652;-2.730;2023-12-20T00:41:59;9.50;80.10
81192;DHT22;70665;47.652;-2.730;2023-12-20T00:44:25;9.50;80.50
81192;DHT22;70665;47.652;-2.730;2023-12-20T00:46:51;9.30;79.80
81192;DHT22;70665;47.652;-2.730;2023-12-20T00:49:17;9.30;80.80
81192;DHT22;70665;47.652;-2.730;2023-12-20T00:51:42;9.20;81.10
81192;DHT22;70665;47.652;-2.730;2023-12-20T00:54:08;9.00;81.00
81192;DHT22;70665;47.652;-2.730;2023-12-20T00:56:34;8.90;81.20
81192;DHT22;70665;47.652;-2.730;2023-12-20T00:59:00;8.90;81.70
81192;DHT22;70665;47.652;-2.730;2023-12-20T01:01:26;8.80;81.70
81192;DHT22;70665;47.652;-2.730;2023-12-20T01:03:51;8.60;82.20
81192;DHT22;70665;47.652;-2.730;2023-12-20T01:06:18;8.70;82.10
81192;DHT22;70665;47.652;-2.730;2023-12-20T01:08:43;8.40;81.80
81192;DHT22;70665;47.652;-2.730;2023-12-20T01:11:09;8.60;82.20
81192;DHT22;70665;47.652;-2.730;2023-12-20T01:13:35;8.60;81.90
81192;DHT22;70665;47.652;-2.730;2023-12-20T01:16:00;8.70;82.40
81192;DHT22;70665;47.652;-2.730;2023-12-20T01:18:26;8.80;82.10
81192;DHT22;70665;47.652;-2.730;2023-12-20T01:20:52;8.90;81.60
81192;DHT22;70665;47.652;-2.730;2023-12-20T01:23:18;8.80;81.60
81192;DHT22;70665;47.652;-2.730;2023-12-20T01:25:43;8.90;81.10
81192;DHT22;70665;47.652;-2.730;2023-12-20T01:28:09;8.90;81.70
81192;DHT22;70665;47.652;-2.730;2023-12-20T01:30:35;8.90;81.50
81192;DHT22;70665;47.652;-2.730;2023-12-20T01:33:00;8.80;82.00
81192;DHT22;70665;47.652;-2.730;2023-12-20T01:35:26;8.80;82.30
81192;DHT22;70665;47.652;-2.730;2023-12-20T01:37:52;8.70;82.00
81192;DHT22;70665;47.652;-2.730;2023-12-20T01:40:22;8.50;82.20
81192;DHT22;70665;47.652;-2.730;2023-12-20T01:42:48;8.50;82.60
81192;DHT22;70665;47.652;-2.730;2023-12-20T01:45:26;8.30;83.10
81192;DHT22;70665;47.652;-2.730;2023-12-20T01:47:53;8.40;83.40
81192;DHT22;70665;47.652;-2.730;2023-12-20T01:50:19;8.10;83.50
81192;DHT22;70665;47.652;-2.730;2023-12-20T01:52:45;8.30;83.30
81192;DHT22;70665;47.652;-2.730;2023-12-20T01:55:10;8.10;83.80
81192;DHT22;70665;47.652;-2.730;2023-12-20T01:57:41;8.00;84.00
81192;DHT22;70665;47.652;-2.730;2023-12-20T02:00:07;8.00;84.30
81192;DHT22;70665;47.652;-2.730;2023-12-20T02:02:37;8.10;84.50
81192;DHT22;70665;47.652;-2.730;2023-12-20T02:05:05;8.00;84.40
81192;DHT22;70665;47.652;-2.730;2023-12-20T02:07:31;8.00;84.50
81192;DHT22;70665;47.652;-2.730;2023-12-20T02:09:56;8.00;84.70
81192;DHT22;70665;47.652;-2.730;2023-12-20T02:12:22;7.90;84.50
81192;DHT22;70665;47.652;-2.730;2023-12-20T02:14:48;8.00;84.60
81192;DHT22;70665;47.652;-2.730;2023-12-20T02:17:15;7.90;85.10
81192;DHT22;70665;47.652;-2.730;2023-12-20T02:19:40;7.90;85.20
81192;DHT22;70665;47.652;-2.730;2023-12-20T02:22:12;7.90;85.00
81192;DHT22;70665;47.652;-2.730;2023-12-20T02:24:38;8.00;85.20
81192;DHT22;70665;47.652;-2.730;2023-12-20T02:27:06;7.70;85.40
81192;DHT22;70665;47.652;-2.730;2023-12-20T02:29:33;7.90;85.50
81192;DHT22;70665;47.652;-2.730;2023-12-20T02:31:59;7.70;85.60
81192;DHT22;70665;47.652;-2.730;2023-12-20T02:34:24;7.70;85.80
81192;DHT22;70665;47.652;-2.730;2023-12-20T02:36:50;7.60;85.80
81192;DHT22;70665;47.652;-2.730;2023-12-20T02:39:16;7.70;86.00
81192;DHT22;70665;47.652;-2.730;2023-12-20T02:41:42;7.90;85.80
81192;DHT22;70665;47.652;-2.730;2023-12-20T02:44:08;7.80;85.80
81192;DHT22;70665;47.652;-2.730;2023-12-20T02:46:33;7.90;85.80
81192;DHT22;70665;47.652;-2.730;2023-12-20T02:48:59;8.00;85.70
81192;DHT22;70665;47.652;-2.730;2023-12-20T02:51:24;8.10;85.10
81192;DHT22;70665;47.652;-2.730;2023-12-20T02:53:50;8.30;85.30
81192;DHT22;70665;47.652;-2.730;2023-12-20T02:56:16;8.00;85.00
81192;DHT22;70665;47.652;-2.730;2023-12-20T02:58:41;8.20;84.90
81192;DHT22;70665;47.652;-2.730;2023-12-20T03:01:08;8.40;84.90
81192;DHT22;70665;47.652;-2.730;2023-12-20T03:03:34;8.40;84.40
81192;DHT22;70665;47.652;-2.730;2023-12-20T03:06:00;8.40;84.40
81192;DHT22;70665;47.652;-2.730;2023-12-20T03:08:25;8.60;84.70
81192;DHT22;70665;47.652;-2.730;2023-12-20T03:10:51;8.50;84.10
81192;DHT22;70665;47.652;-2.730;2023-12-20T03:13:16;8.60;84.30
81192;DHT22;70665;47.652;-2.730;2023-12-20T03:15:42;8.50;83.90
81192;DHT22;70665;47.652;-2.730;2023-12-20T03:18:08;8.60;83.80
81192;DHT22;70665;47.652;-2.730;2023-12-20T03:20:33;8.70;83.80
81192;DHT22;70665;47.652;-2.730;2023-12-20T03:23:03;8.60;83.30
81192;DHT22;70665;47.652;-2.730;2023-12-20T03:25:29;8.60;83.60
81192;DHT22;70665;47.652;-2.730;2023-12-20T03:27:55;8.60;84.20
81192;DHT22;70665;47.652;-2.730;2023-12-20T03:30:20;8.50;84.90
81192;DHT22;70665;47.652;-2.730;2023-12-20T03:32:46;8.60;85.00
81192;DHT22;70665;47.652;-2.730;2023-12-20T03:35:12;8.50;85.40
81192;DHT22;70665;47.652;-2.730;2023-12-20T03:37:38;8.50;86.00
81192;DHT22;70665;47.652;-2.730;2023-12-20T03:40:04;8.40;86.10
81192;DHT22;70665;47.652;-2.730;2023-12-20T03:42:30;8.20;86.50
81192;DHT22;70665;47.652;-2.730;2023-12-20T03:44:56;8.30;87.10
81192;DHT22;70665;47.652;-2.730;2023-12-20T03:47:22;8.10;87.60
81192;DHT22;70665;47.652;-2.730;2023-12-20T03:49:47;8.00;87.70
81192;DHT22;70665;47.652;-2.730;2023-12-20T03:52:13;8.10;87.90
81192;DHT22;70665;47.652;-2.730;2023-12-20T03:54:39;7.90;88.30
81192;DHT22;70665;47.652;-2.730;2023-12-20T03:57:05;8.00;88.50
81192;DHT22;70665;47.652;-2.730;2023-12-20T03:59:35;7.90;88.70
81192;DHT22;70665;47.652;-2.730;2023-12-20T04:02:01;7.80;88.80
81192;DHT22;70665;47.652;-2.730;2023-12-20T04:04:27;7.80;88.90
81192;DHT22;70665;47.652;-2.730;2023-12-20T04:06:53;7.80;88.80
81192;DHT22;70665;47.652;-2.730;2023-12-20T04:09:18;7.80;88.90
81192;DHT22;70665;47.652;-2.730;2023-12-20T04:11:44;7.90;88.80
81192;DHT22;70665;47.652;-2.730;2023-12-20T04:14:09;7.90;89.00
81192;DHT22;70665;47.652;-2.730;2023-12-20T04:16:35;7.90;89.30
81192;DHT22;70665;47.652;-2.730;2023-12-20T04:19:01;7.60;89.20
81192;DHT22;70665;47.652;-2.730;2023-12-20T04:21:27;7.80;89.20
81192;DHT22;70665;47.652;-2.730;2023-12-20T04:23:53;7.80;89.10
81192;DHT22;70665;47.652;-2.730;2023-12-20T04:26:18;7.80;89.20
81192;DHT22;70665;47.652;-2.730;2023-12-20T04:28:44;7.70;89.30
81192;DHT22;70665;47.652;-2.730;2023-12-20T04:31:10;7.80;89.30
81192;DHT22;70665;47.652;-2.730;2023-12-20T04:33:35;7.70;89.50
81192;DHT22;70665;47.652;-2.730;2023-12-20T04:36:01;7.70;89.70
81192;DHT22;70665;47.652;-2.730;2023-12-20T04:38:26;7.70;89.60
81192;DHT22;70665;47.652;-2.730;2023-12-20T04:40:52;7.70;89.50
81192;DHT22;70665;47.652;-2.730;2023-12-20T04:43:18;7.60;89.60
81192;DHT22;70665;47.652;-2.730;2023-12-20T04:45:43;7.60;89.90
81192;DHT22;70665;47.652;-2.730;2023-12-20T04:48:09;7.70;90.20
81192;DHT22;70665;47.652;-2.730;2023-12-20T04:50:34;7.60;90.30
81192;DHT22;70665;47.652;-2.730;2023-12-20T04:53:00;7.50;90.10
81192;DHT22;70665;47.652;-2.730;2023-12-20T04:55:25;7.60;90.30
81192;DHT22;70665;47.652;-2.730;2023-12-20T04:57:51;7.60;90.20
81192;DHT22;70665;47.652;-2.730;2023-12-20T05:00:17;7.50;89.80
81192;DHT22;70665;47.652;-2.730;2023-12-20T05:02:43;7.50;89.60
81192;DHT22;70665;47.652;-2.730;2023-12-20T05:05:08;7.60;89.60
81192;DHT22;70665;47.652;-2.730;2023-12-20T05:07:34;7.40;89.70
81192;DHT22;70665;47.652;-2.730;2023-12-20T05:10:00;7.40;90.00
81192;DHT22;70665;47.652;-2.730;2023-12-20T05:12:25;7.20;89.90
81192;DHT22;70665;47.652;-2.730;2023-12-20T05:14:52;7.30;89.90
81192;DHT22;70665;47.652;-2.730;2023-12-20T05:17:17;7.40;90.20
81192;DHT22;70665;47.652;-2.730;2023-12-20T05:19:43;7.20;90.20
81192;DHT22;70665;47.652;-2.730;2023-12-20T05:22:09;7.20;90.50
81192;DHT22;70665;47.652;-2.730;2023-12-20T05:24:35;7.20;90.80
81192;DHT22;70665;47.652;-2.730;2023-12-20T05:27:01;7.20;90.80
81192;DHT22;70665;47.652;-2.730;2023-12-20T05:29:26;7.10;91.30
81192;DHT22;70665;47.652;-2.730;2023-12-20T05:31:52;7.10;91.20
81192;DHT22;70665;47.652;-2.730;2023-12-20T05:34:17;7.20;91.20
81192;DHT22;70665;47.652;-2.730;2023-12-20T05:36:43;7.30;91.10
81192;DHT22;70665;47.652;-2.730;2023-12-20T05:39:09;7.30;90.80
81192;DHT22;70665;47.652;-2.730;2023-12-20T05:41:34;7.50;90.50
81192;DHT22;70665;47.652;-2.730;2023-12-20T05:44:00;7.40;90.20
81192;DHT22;70665;47.652;-2.730;2023-12-20T05:46:26;7.40;89.80
81192;DHT22;70665;47.652;-2.730;2023-12-20T05:48:51;7.30;89.80
81192;DHT22;70665;47.652;-2.730;2023-12-20T05:51:17;7.20;90.10
81192;DHT22;70665;47.652;-2.730;2023-12-20T05:53:44;7.20;90.00
81192;DHT22;70665;47.652;-2.730;2023-12-20T05:56:10;7.20;90.30
81192;DHT22;70665;47.652;-2.730;2023-12-20T05:58:36;7.40;90.20
81192;DHT22;70665;47.652;-2.730;2023-12-20T06:01:05;7.00;90.60
81192;DHT22;70665;47.652;-2.730;2023-12-20T06:03:31;7.20;90.40
81192;DHT22;70665;47.652;-2.730;2023-12-20T06:05:56;7.00;90.40
81192;DHT22;70665;47.652;-2.730;2023-12-20T06:08:22;7.00;90.50
81192;DHT22;70665;47.652;-2.730;2023-12-20T06:10:49;7.00;90.60
81192;DHT22;70665;47.652;-2.730;2023-12-20T06:13:15;6.90;90.70
81192;DHT22;70665;47.652;-2.730;2023-12-20T06:15:40;7.10;90.70
81192;DHT22;70665;47.652;-2.730;2023-12-20T06:18:06;7.00;90.60
81192;DHT22;70665;47.652;-2.730;2023-12-20T06:20:32;7.00;90.90
81192;DHT22;70665;47.652;-2.730;2023-12-20T06:22:58;7.10;90.90
81192;DHT22;70665;47.652;-2.730;2023-12-20T06:25:24;6.90;90.70
81192;DHT22;70665;47.652;-2.730;2023-12-20T06:27:49;6.90;90.50
81192;DHT22;70665;47.652;-2.730;2023-12-20T06:30:16;6.90;90.40
81192;DHT22;70665;47.652;-2.730;2023-12-20T06:32:42;6.90;90.30
81192;DHT22;70665;47.652;-2.730;2023-12-20T06:35:08;7.10;90.10
81192;DHT22;70665;47.652;-2.730;2023-12-20T06:37:34;7.10;90.00
81192;DHT22;70665;47.652;-2.730;2023-12-20T06:40:00;7.20;90.00
81192;DHT22;70665;47.652;-2.730;2023-12-20T06:42:25;7.00;89.80
81192;DHT22;70665;47.652;-2.730;2023-12-20T06:44:51;7.30;89.80
81192;DHT22;70665;47.652;-2.730;2023-12-20T06:47:16;7.40;89.90
81192;DHT22;70665;47.652;-2.730;2023-12-20T06:49:42;7.50;89.90
81192;DHT22;70665;47.652;-2.730;2023-12-20T06:52:07;7.40;89.60
81192;DHT22;70665;47.652;-2.730;2023-12-20T06:54:33;7.40;89.60
81192;DHT22;70665;47.652;-2.730;2023-12-20T06:56:59;7.50;89.70
81192;DHT22;70665;47.652;-2.730;2023-12-20T06:59:25;7.40;89.60
81192;DHT22;70665;47.652;-2.730;2023-12-20T07:01:51;7.60;89.70
81192;DHT22;70665;47.652;-2.730;2023-12-20T07:04:17;7.40;89.60
81192;DHT22;70665;47.652;-2.730;2023-12-20T07:06:46;7.30;89.60
81192;DHT22;70665;47.652;-2.730;2023-12-20T07:09:12;7.20;89.70
81192;DHT22;70665;47.652;-2.730;2023-12-20T07:11:38;7.20;89.70
81192;DHT22;70665;47.652;-2.730;2023-12-20T07:14:04;6.90;90.00
81192;DHT22;70665;47.652;-2.730;2023-12-20T07:16:30;7.00;89.90
81192;DHT22;70665;47.652;-2.730;2023-12-20T07:18:55;7.00;90.00
81192;DHT22;70665;47.652;-2.730;2023-12-20T07:21:22;6.80;89.90
81192;DHT22;70665;47.652;-2.730;2023-12-20T07:23:48;6.80;89.70
81192;DHT22;70665;47.652;-2.730;2023-12-20T07:26:13;6.80;89.90
81192;DHT22;70665;47.652;-2.730;2023-12-20T07:28:39;6.50;89.70
81192;DHT22;70665;47.652;-2.730;2023-12-20T07:31:06;6.50;89.90
81192;DHT22;70665;47.652;-2.730;2023-12-20T07:33:31;6.50;89.90
81192;DHT22;70665;47.652;-2.730;2023-12-20T07:35:57;6.20;90.20
81192;DHT22;70665;47.652;-2.730;2023-12-20T07:38:23;6.20;90.10
81192;DHT22;70665;47.652;-2.730;2023-12-20T07:40:49;6.30;90.00
81192;DHT22;70665;47.652;-2.730;2023-12-20T07:43:14;6.20;90.20
81192;DHT22;70665;47.652;-2.730;2023-12-20T07:45:40;6.20;90.30
81192;DHT22;70665;47.652;-2.730;2023-12-20T07:48:07;6.30;90.10
81192;DHT22;70665;47.652;-2.730;2023-12-20T07:50:32;6.20;90.60
81192;DHT22;70665;47.652;-2.730;2023-12-20T07:52:58;6.30;90.60
81192;DHT22;70665;47.652;-2.730;2023-12-20T07:55:26;6.30;90.60
81192;DHT22;70665;47.652;-2.730;2023-12-20T07:57:52;6.40;90.60
81192;DHT22;70665;47.652;-2.730;2023-12-20T08:00:18;6.40;89.80
81192;DHT22;70665;47.652;-2.730;2023-12-20T08:02:43;6.50;89.20
81192;DHT22;70665;47.652;-2.730;2023-12-20T08:05:09;6.50;89.60
81192;DHT22;70665;47.652;-2.730;2023-12-20T08:07:35;6.60;89.30
81192;DHT22;70665;47.652;-2.730;2023-12-20T08:10:00;6.70;88.90
81192;DHT22;70665;47.652;-2.730;2023-12-20T08:12:26;6.60;88.60
81192;DHT22;70665;47.652;-2.730;2023-12-20T08:14:53;6.70;88.30
81192;DHT22;70665;47.652;-2.730;2023-12-20T08:17:19;6.60;88.40
81192;DHT22;70665;47.652;-2.730;2023-12-20T08:19:45;6.60;88.40
81192;DHT22;70665;47.652;-2.730;2023-12-20T08:22:11;6.80;88.70
81192;DHT22;70665;47.652;-2.730;2023-12-20T08:24:37;6.80;89.10
81192;DHT22;70665;47.652;-2.730;2023-12-20T08:27:04;6.70;88.90
81192;DHT22;70665;47.652;-2.730;2023-12-20T08:29:30;6.90;88.90
81192;DHT22;70665;47.652;-2.730;2023-12-20T08:31:56;6.80;88.50
81192;DHT22;70665;47.652;-2.730;2023-12-20T08:34:22;6.80;88.50
81192;DHT22;70665;47.652;-2.730;2023-12-20T08:36:50;6.90;88.50
81192;DHT22;70665;47.652;-2.730;2023-12-20T08:39:16;6.80;88.50
81192;DHT22;70665;47.652;-2.730;2023-12-20T08:41:41;7.00;88.40
81192;DHT22;70665;47.652;-2.730;2023-12-20T08:44:07;7.10;88.70
81192;DHT22;70665;47.652;-2.730;2023-12-20T08:46:32;7.10;88.90
81192;DHT22;70665;47.652;-2.730;2023-12-20T08:48:58;7.20;89.00
81192;DHT22;70665;47.652;-2.730;2023-12-20T08:51:24;7.20;89.10
81192;DHT22;70665;47.652;-2.730;2023-12-20T08:53:51;7.40;88.90
81192;DHT22;70665;47.652;-2.730;2023-12-20T08:56:17;7.20;88.60
81192;DHT22;70665;47.652;-2.730;2023-12-20T08:58:44;7.30;88.70
81192;DHT22;70665;47.652;-2.730;2023-12-20T09:01:09;7.50;88.60
81192;DHT22;70665;47.652;-2.730;2023-12-20T09:03:35;7.60;88.60
81192;DHT22;70665;47.652;-2.730;2023-12-20T09:06:00;7.80;88.70
81192;DHT22;70665;47.652;-2.730;2023-12-20T09:08:26;7.50;88.50
81192;DHT22;70665;47.652;-2.730;2023-12-20T09:10:52;7.60;88.30
81192;DHT22;70665;47.652;-2.730;2023-12-20T09:13:18;7.70;88.50
81192;DHT22;70665;47.652;-2.730;2023-12-20T09:15:43;7.60;88.70
81192;DHT22;70665;47.652;-2.730;2023-12-20T09:18:09;7.70;88.70
81192;DHT22;70665;47.652;-2.730;2023-12-20T09:20:35;7.60;88.70
81192;DHT22;70665;47.652;-2.730;2023-12-20T09:23:01;7.80;88.70
81192;DHT22;70665;47.652;-2.730;2023-12-20T09:25:26;7.90;88.90
81192;DHT22;70665;47.652;-2.730;2023-12-20T09:27:52;8.00;88.70
81192;DHT22;70665;47.652;-2.730;2023-12-20T09:30:18;8.30;88.40
81192;DHT22;70665;47.652;-2.730;2023-12-20T09:32:45;8.40;88.00
81192;DHT22;70665;47.652;-2.730;2023-12-20T09:35:11;8.30;87.90
81192;DHT22;70665;47.652;-2.730;2023-12-20T09:37:36;8.60;87.60
81192;DHT22;70665;47.652;-2.730;2023-12-20T09:40:03;8.70;87.40
81192;DHT22;70665;47.652;-2.730;2023-12-20T09:42:35;8.80;87.10
81192;DHT22;70665;47.652;-2.730;2023-12-20T09:45:04;8.80;87.10
81192;DHT22;70665;47.652;-2.730;2023-12-20T09:47:33;8.90;87.00
81192;DHT22;70665;47.652;-2.730;2023-12-20T09:49:59;9.00;87.10
81192;DHT22;70665;47.652;-2.730;2023-12-20T09:52:25;9.10;87.10
81192;DHT22;70665;47.652;-2.730;2023-12-20T09:54:52;9.10;87.00
81192;DHT22;70665;47.652;-2.730;2023-12-20T09:57:18;9.20;86.80
81192;DHT22;70665;47.652;-2.730;2023-12-20T09:59:44;9.30;86.70
81192;DHT22;70665;47.652;-2.730;2023-12-20T10:02:13;9.40;86.60
81192;DHT22;70665;47.652;-2.730;2023-12-20T10:04:47;9.50;86.40
81192;DHT22;70665;47.652;-2.730;2023-12-20T10:07:13;9.70;86.20
81192;DHT22;70665;47.652;-2.730;2023-12-20T10:09:39;9.70;86.50
81192;DHT22;70665;47.652;-2.730;2023-12-20T10:12:05;9.70;86.00
81192;DHT22;70665;47.652;-2.730;2023-12-20T10:14:32;9.90;86.10
81192;DHT22;70665;47.652;-2.730;2023-12-20T10:17:04;10.00;85.80
81192;DHT22;70665;47.652;-2.730;2023-12-20T10:19:31;10.00;85.50
81192;DHT22;70665;47.652;-2.730;2023-12-20T10:21:59;10.10;85.50
81192;DHT22;70665;47.652;-2.730;2023-12-20T10:24:25;10.20;85.30
81192;DHT22;70665;47.652;-2.730;2023-12-20T10:27:05;10.20;85.30
81192;DHT22;70665;47.652;-2.730;2023-12-20T10:29:37;10.20;85.10
81192;DHT22;70665;47.652;-2.730;2023-12-20T10:32:26;10.20;85.00
81192;DHT22;70665;47.652;-2.730;2023-12-20T10:34:53;10.30;85.10
81192;DHT22;70665;47.652;-2.730;2023-12-20T10:37:19;10.20;85.20
81192;DHT22;70665;47.652;-2.730;2023-12-20T10:39:53;10.40;84.90
81192;DHT22;70665;47.652;-2.730;2023-12-20T10:42:22;10.50;85.00
81192;DHT22;70665;47.652;-2.730;2023-12-20T10:44:49;10.60;84.20
81192;DHT22;70665;47.652;-2.730;2023-12-20T10:47:17;10.70;84.50
81192;DHT22;70665;47.652;-2.730;2023-12-20T10:49:43;10.70;83.70
81192;DHT22;70665;47.652;-2.730;2023-12-20T10:52:11;10.80;84.00
81192;DHT22;70665;47.652;-2.730;2023-12-20T10:54:37;10.90;83.90
81192;DHT22;70665;47.652;-2.730;2023-12-20T10:57:05;10.90;83.70
81192;DHT22;70665;47.652;-2.730;2023-12-20T10:59:33;11.00;83.60
81192;DHT22;70665;47.652;-2.730;2023-12-20T11:01:59;11.00;83.50
81192;DHT22;70665;47.652;-2.730;2023-12-20T11:05:19;11.00;83.80
81192;DHT22;70665;47.652;-2.730;2023-12-20T11:07:29;11.10;83.10
81192;DHT22;70665;47.652;-2.730;2023-12-20T11:10:17;11.20;82.90
81192;DHT22;70665;47.652;-2.730;2023-12-20T11:12:51;11.20;82.60
81192;DHT22;70665;47.652;-2.730;2023-12-20T11:15:19;11.30;81.90
81192;DHT22;70665;47.652;-2.730;2023-12-20T11:17:47;11.40;82.10
81192;DHT22;70665;47.652;-2.730;2023-12-20T11:20:43;11.40;82.10
81192;DHT22;70665;47.652;-2.730;2023-12-20T11:23:09;11.60;82.20
81192;DHT22;70665;47.652;-2.730;2023-12-20T11:26:04;11.60;81.90
81192;DHT22;70665;47.652;-2.730;2023-12-20T11:28:29;11.70;81.40
81192;DHT22;70665;47.652;-2.730;2023-12-20T11:30:56;11.80;81.10
81192;DHT22;70665;47.652;-2.730;2023-12-20T11:33:30;11.70;81.00
81192;DHT22;70665;47.652;-2.730;2023-12-20T11:35:57;11.80;80.90
81192;DHT22;70665;47.652;-2.730;2023-12-20T11:38:23;12.00;81.00
81192;DHT22;70665;47.652;-2.730;2023-12-20T11:40:49;12.20;80.80
81192;DHT22;70665;47.652;-2.730;2023-12-20T11:43:38;12.10;80.20
81192;DHT22;70665;47.652;-2.730;2023-12-20T11:46:08;12.40;80.50
81192;DHT22;70665;47.652;-2.730;2023-12-20T11:48:36;12.50;80.00
81192;DHT22;70665;47.652;-2.730;2023-12-20T11:51:08;12.70;79.60
81192;DHT22;70665;47.652;-2.730;2023-12-20T11:53:34;12.70;79.10
81192;DHT22;70665;47.652;-2.730;2023-12-20T11:56:00;12.70;79.10
81192;DHT22;70665;47.652;-2.730;2023-12-20T11:58:28;12.80;78.50
81192;DHT22;70665;47.652;-2.730;2023-12-20T12:00:55;13.00;79.30
81192;DHT22;70665;47.652;-2.730;2023-12-20T12:03:21;13.00;78.30
81192;DHT22;70665;47.652;-2.730;2023-12-20T12:05:49;13.10;78.70
81192;DHT22;70665;47.652;-2.730;2023-12-20T12:08:16;13.20;78.60
81192;DHT22;70665;47.652;-2.730;2023-12-20T12:10:45;13.40;77.80
81192;DHT22;70665;47.652;-2.730;2023-12-20T12:13:11;13.50;77.20
81192;DHT22;70665;47.652;-2.730;2023-12-20T12:15:37;13.70;76.90
81192;DHT22;70665;47.652;-2.730;2023-12-20T12:18:03;13.70;76.40
81192;DHT22;70665;47.652;-2.730;2023-12-20T12:20:30;13.80;76.00
81192;DHT22;70665;47.652;-2.730;2023-12-20T12:23:05;13.80;76.40
81192;DHT22;70665;47.652;-2.730;2023-12-20T12:25:34;13.70;76.20
81192;DHT22;70665;47.652;-2.730;2023-12-20T12:28:01;13.90;76.60
81192;DHT22;70665;47.652;-2.730;2023-12-20T12:30:27;14.00;74.90
81192;DHT22;70665;47.652;-2.730;2023-12-20T12:32:53;14.20;75.00
81192;DHT22;70665;47.652;-2.730;2023-12-20T12:35:19;14.40;73.70
81192;DHT22;70665;47.652;-2.730;2023-12-20T12:37:45;14.40;74.20
81192;DHT22;70665;47.652;-2.730;2023-12-20T12:40:16;14.40;73.90
81192;DHT22;70665;47.652;-2.730;2023-12-20T12:42:43;14.30;74.20
81192;DHT22;70665;47.652;-2.730;2023-12-20T12:45:09;14.30;75.30
81192;DHT22;70665;47.652;-2.730;2023-12-20T12:47:35;14.20;74.40
81192;DHT22;70665;47.652;-2.730;2023-12-20T12:50:01;14.20;76.60
81192;DHT22;70665;47.652;-2.730;2023-12-20T12:52:26;14.00;76.30
81192;DHT22;70665;47.652;-2.730;2023-12-20T12:54:52;13.90;76.50
81192;DHT22;70665;47.652;-2.730;2023-12-20T12:57:18;13.40;79.20
81192;DHT22;70665;47.652;-2.730;2023-12-20T12:59:45;13.20;80.10
81192;DHT22;70665;47.652;-2.730;2023-12-20T13:02:14;13.10;82.90
81192;DHT22;70665;47.652;-2.730;2023-12-20T13:04:40;12.80;83.00
81192;DHT22;70665;47.652;-2.730;2023-12-20T13:07:10;12.80;83.10
81192;DHT22;70665;47.652;-2.730;2023-12-20T13:09:39;12.80;83.70
81192;DHT22;70665;47.652;-2.730;2023-12-20T13:12:05;12.80;82.90
81192;DHT22;70665;47.652;-2.730;2023-12-20T13:14:35;13.10;82.60
81192;DHT22;70665;47.652;-2.730;2023-12-20T13:17:04;13.30;82.50
81192;DHT22;70665;47.652;-2.730;2023-12-20T13:19:29;13.40;81.90
81192;DHT22;70665;47.652;-2.730;2023-12-20T13:21:56;13.70;80.60
81192;DHT22;70665;47.652;-2.730;2023-12-20T13:24:21;13.80;79.90
81192;DHT22;70665;47.652;-2.730;2023-12-20T13:26:47;13.70;79.90
81192;DHT22;70665;47.652;-2.730;2023-12-20T13:29:13;13.60;80.50
81192;DHT22;70665;47.652;-2.730;2023-12-20T13:31:38;13.60;80.60
81192;DHT22;70665;47.652;-2.730;2023-12-20T13:34:06;13.80;80.80
81192;DHT22;70665;47.652;-2.730;2023-12-20T13:36:31;14.00;79.10
81192;DHT22;70665;47.652;-2.730;2023-12-20T13:38:57;14.20;78.70
81192;DHT22;70665;47.652;-2.730;2023-12-20T13:41:23;14.70;78.00
81192;DHT22;70665;47.652;-2.730;2023-12-20T13:43:48;15.90;74.40
81192;DHT22;70665;47.652;-2.730;2023-12-20T13:46:15;15.90;73.80
81192;DHT22;70665;47.652;-2.730;2023-12-20T13:48:40;15.50;72.30
81192;DHT22;70665;47.652;-2.730;2023-12-20T13:51:07;15.30;74.60
81192;DHT22;70665;47.652;-2.730;2023-12-20T13:53:33;15.40;74.50
81192;DHT22;70665;47.652;-2.730;2023-12-20T13:55:58;15.70;72.80
81192;DHT22;70665;47.652;-2.730;2023-12-20T13:58:25;16.20;71.30
81192;DHT22;70665;47.652;-2.730;2023-12-20T14:00:51;16.80;69.80
81192;DHT22;70665;47.652;-2.730;2023-12-20T14:03:16;17.70;64.50
81192;DHT22;70665;47.652;-2.730;2023-12-20T14:05:42;17.90;64.70
81192;DHT22;70665;47.652;-2.730;2023-12-20T14:08:07;17.90;62.40
81192;DHT22;70665;47.652;-2.730;2023-12-20T14:10:34;18.20;63.90
81192;DHT22;70665;47.652;-2.730;2023-12-20T14:13:00;17.80;62.00
81192;DHT22;70665;47.652;-2.730;2023-12-20T14:15:25;17.50;64.60
81192;DHT22;70665;47.652;-2.730;2023-12-20T14:17:51;17.30;63.90
81192;DHT22;70665;47.652;-2.730;2023-12-20T14:20:16;17.20;63.90
81192;DHT22;70665;47.652;-2.730;2023-12-20T14:22:43;17.60;64.70
81192;DHT22;70665;47.652;-2.730;2023-12-20T14:25:15;17.60;64.00
81192;DHT22;70665;47.652;-2.730;2023-12-20T14:27:41;17.30;64.00
81192;DHT22;70665;47.652;-2.730;2023-12-20T14:30:10;17.30;63.80
81192;DHT22;70665;47.652;-2.730;2023-12-20T14:32:37;17.30;64.80
81192;DHT22;70665;47.652;-2.730;2023-12-20T14:35:07;17.30;66.40
81192;DHT22;70665;47.652;-2.730;2023-12-20T14:37:34;16.70;67.30
81192;DHT22;70665;47.652;-2.730;2023-12-20T14:40:00;15.90;70.50
81192;DHT22;70665;47.652;-2.730;2023-12-20T14:42:26;15.40;71.60
81192;DHT22;70665;47.652;-2.730;2023-12-20T14:44:51;14.80;75.40
81192;DHT22;70665;47.652;-2.730;2023-12-20T14:47:17;14.40;76.40
81192;DHT22;70665;47.652;-2.730;2023-12-20T14:49:43;14.00;77.40
81192;DHT22;70665;47.652;-2.730;2023-12-20T14:52:08;14.00;78.20
81192;DHT22;70665;47.652;-2.730;2023-12-20T14:54:37;14.00;78.60
81192;DHT22;70665;47.652;-2.730;2023-12-20T14:57:03;13.80;78.90
81192;DHT22;70665;47.652;-2.730;2023-12-20T14:59:29;13.70;79.40
81192;DHT22;70665;47.652;-2.730;2023-12-20T15:01:54;13.50;79.90
81192;DHT22;70665;47.652;-2.730;2023-12-20T15:04:20;13.40;81.10
81192;DHT22;70665;47.652;-2.730;2023-12-20T15:06:54;13.30;82.20
81192;DHT22;70665;47.652;-2.730;2023-12-20T15:09:19;13.20;82.80
81192;DHT22;70665;47.652;-2.730;2023-12-20T15:11:45;13.10;83.60
81192;DHT22;70665;47.652;-2.730;2023-12-20T15:14:11;13.00;83.80
81192;DHT22;70665;47.652;-2.730;2023-12-20T15:16:36;12.90;86.10
81192;DHT22;70665;47.652;-2.730;2023-12-20T15:19:02;12.90;87.10
81192;DHT22;70665;47.652;-2.730;2023-12-20T15:21:28;13.00;86.50